Time;durP1;ratioP1;P1;durP2;ratioP2;P2;SDS_P1;SDS_P2;PMS_P1;PMS_P2;Temp;Humidity;BMP_temperature;BMP_pressure;BME280_temperature;BME280_humidity;BME280_pressure;Samples;Min_cycle;Max_cycle;Signal;HPM_P1;HPM_P2
2022/10/08 00:00:48;;;;;;;10.30;2.97;;;;;;;;;;5073010;28;20199;-47
2022/10/08 00:03:14;;;;;;;7.00;3.27;;;;;;;;;;5072607;28;20248;-47
2022/10/08 00:05:42;;;;;;;4.70;2.90;;;;;;;;;;5073289;28;20245;-47
2022/10/08 00:08:09;;;;;;;10.47;3.50;;;;;;;;;;5073087;28;20542;-47
2022/10/08 00:10:35;;;;;;;9.83;3.33;;;;;;;;;;5073313;28;20253;-47
2022/10/08 00:13:01;;;;;;;12.17;2.90;;;;;;;;;;5073155;28;20254;-47
2022/10/08 00:15:28;;;;;;;10.33;3.17;;;;;;;;;;5073193;28;20248;-47
2022/10/08 00:17:54;;;;;;;9.63;3.10;;;;;;;;;;5073124;28;20199;-47
2022/10/08 00:20:20;;;;;;;5.30;2.87;;;;;;;;;;5073293;28;20191;-47
2022/10/08 00:22:48;;;;;;;7.97;2.87;;;;;;;;;;5073000;28;20198;-46
2022/10/08 00:25:14;;;;;;;6.60;3.13;;;;;;;;;;5073180;28;20278;-47
2022/10/08 00:27:41;;;;;;;6.57;2.87;;;;;;;;;;5072912;28;20199;-46
2022/10/08 00:30:07;;;;;;;8.87;2.80;;;;;;;;;;5072870;28;20195;-47
2022/10/08 00:32:33;;;;;;;6.70;2.67;;;;;;;;;;5072799;28;20243;-47
2022/10/08 00:34:59;;;;;;;8.27;3.27;;;;;;;;;;5072951;28;20606;-47
2022/10/08 00:37:25;;;;;;;9.87;3.23;;;;;;;;;;5072679;28;20203;-46
2022/10/08 00:39:53;;;;;;;11.47;3.67;;;;;;;;;;5072656;28;20210;-47
2022/10/08 00:42:20;;;;;;;7.00;2.90;;;;;;;;;;5072378;28;20294;-47
2022/10/08 00:44:54;;;;;;;12.23;3.10;;;;;;;;;;5072123;28;20201;-46
2022/10/08 00:47:24;;;;;;;8.57;3.23;;;;;;;;;;5072673;28;20195;-47
2022/10/08 00:49:53;;;;;;;11.93;2.87;;;;;;;;;;5072430;28;20231;-47
2022/10/08 00:52:20;;;;;;;8.87;3.10;;;;;;;;;;5072432;28;20246;-47
2022/10/08 00:54:50;;;;;;;6.80;3.50;;;;;;;;;;5072292;28;20706;-47
2022/10/08 00:57:18;;;;;;;6.60;3.10;;;;;;;;;;5072330;28;20283;-47
2022/10/08 00:59:44;;;;;;;8.80;2.60;;;;;;;;;;5072060;28;20203;-46
2022/10/08 01:02:11;;;;;;;5.83;3.37;;;;;;;;;;5072327;28;20207;-46
2022/10/08 01:04:38;;;;;;;11.17;3.30;;;;;;;;;;5071831;28;20201;-47
2022/10/08 01:07:07;;;;;;;9.17;3.20;;;;;;;;;;5071369;28;20209;-46
2022/10/08 01:09:35;;;;;;;8.67;3.30;;;;;;;;;;5072248;28;20203;-47
2022/10/08 01:12:04;;;;;;;10.77;2.87;;;;;;;;;;5071217;28;20251;-47
2022/10/08 01:14:38;;;;;;;8.87;3.27;;;;;;;;;;5071725;28;20558;-47
2022/10/08 01:17:06;;;;;;;8.47;2.80;;;;;;;;;;5072074;28;20210;-47
2022/10/08 01:19:41;;;;;;;5.67;3.13;;;;;;;;;;5071933;28;20196;-47
2022/10/08 01:22:13;;;;;;;7.63;2.93;;;;;;;;;;5071895;28;20191;-47
2022/10/08 01:27:31;;;;;;;7.67;3.10;;;;;;;;;;5072013;28;20271;-47
2022/10/08 01:30:00;;;;;;;8.10;3.30;;;;;;;;;;5071763;28;20571;-47
2022/10/08 01:32:29;;;;;;;10.80;4.30;;;;;;;;;;5071758;28;20227;-47
2022/10/08 01:34:57;;;;;;;8.13;3.10;;;;;;;;;;5071781;28;20200;-47
2022/10/08 01:37:26;;;;;;;8.53;3.70;;;;;;;;;;5071870;28;20191;-47
2022/10/08 01:39:54;;;;;;;7.97;2.93;;;;;;;;;;5071795;28;20195;-46
2022/10/08 01:42:22;;;;;;;10.47;3.10;;;;;;;;;;5071925;28;20188;-46
2022/10/08 01:44:51;;;;;;;8.07;3.27;;;;;;;;;;5071694;28;20350;-47
2022/10/08 01:47:19;;;;;;;11.33;3.10;;;;;;;;;;5071519;28;20199;-47
2022/10/08 01:49:47;;;;;;;12.40;3.20;;;;;;;;;;5071113;28;20317;-47
2022/10/08 01:52:21;;;;;;;12.63;3.20;;;;;;;;;;5071500;28;20587;-47
2022/10/08 01:54:49;;;;;;;6.00;2.90;;;;;;;;;;5071793;28;20249;-47
2022/10/08 01:57:15;;;;;;;9.27;3.40;;;;;;;;;;5071678;28;20256;-46
2022/10/08 01:59:43;;;;;;;10.37;3.10;;;;;;;;;;5071628;28;20202;-47
2022/10/08 02:02:14;;;;;;;9.37;3.10;;;;;;;;;;5071545;28;20199;-47
2022/10/08 02:04:40;;;;;;;6.53;3.00;;;;;;;;;;5071442;28;20204;-47
2022/10/08 02:07:08;;;;;;;7.47;3.00;;;;;;;;;;5071179;28;20265;-47
2022/10/08 02:09:35;;;;;;;11.57;3.57;;;;;;;;;;5071614;28;20196;-47
2022/10/08 02:12:01;;;;;;;9.13;4.13;;;;;;;;;;5071282;28;20319;-47
2022/10/08 02:14:28;;;;;;;6.77;3.20;;;;;;;;;;5071341;28;20310;-46
2022/10/08 02:16:57;;;;;;;7.87;3.60;;;;;;;;;;5070876;28;20235;-47
2022/10/08 02:19:29;;;;;;;6.90;3.30;;;;;;;;;;5071392;28;20235;-47
2022/10/08 02:21:55;;;;;;;9.70;3.20;;;;;;;;;;5071781;28;20211;-47
2022/10/08 02:24:25;;;;;;;6.80;3.40;;;;;;;;;;5075408;28;20203;-47
2022/10/08 02:26:54;;;;;;;8.87;3.17;;;;;;;;;;5075230;28;20199;-47
2022/10/08 02:29:24;;;;;;;10.87;3.20;;;;;;;;;;5075265;28;20264;-47
2022/10/08 02:31:51;;;;;;;9.47;3.43;;;;;;;;;;5075006;28;20629;-46
2022/10/08 02:34:21;;;;;;;12.07;3.87;;;;;;;;;;5075173;28;20282;-47
2022/10/08 02:36:53;;;;;;;7.97;3.17;;;;;;;;;;5075201;28;20204;-47
2022/10/08 02:39:20;;;;;;;11.20;4.00;;;;;;;;;;5075076;28;20227;-47
2022/10/08 02:41:48;;;;;;;9.30;3.20;;;;;;;;;;5075123;28;20198;-46
2022/10/08 02:44:16;;;;;;;8.03;3.70;;;;;;;;;;5074813;28;20219;-47
2022/10/08 02:46:44;;;;;;;14.53;3.57;;;;;;;;;;5074884;28;20657;-47
2022/10/08 02:49:13;;;;;;;7.57;3.63;;;;;;;;;;5074693;28;20601;-47
2022/10/08 02:51:41;;;;;;;9.57;3.13;;;;;;;;;;5074834;28;20824;-47
2022/10/08 02:54:09;;;;;;;11.33;3.63;;;;;;;;;;5074685;28;20253;-47
2022/10/08 02:56:37;;;;;;;10.30;3.63;;;;;;;;;;5074798;28;20207;-47
2022/10/08 02:59:04;;;;;;;8.97;3.20;;;;;;;;;;5074577;28;20739;-47
2022/10/08 03:01:35;;;;;;;8.63;3.53;;;;;;;;;;5074719;28;20291;-47
2022/10/08 03:04:04;;;;;;;9.60;3.40;;;;;;;;;;5074708;28;20604;-47
2022/10/08 03:06:31;;;;;;;10.57;3.40;;;;;;;;;;5072521;28;20386;-47
2022/10/08 03:08:58;;;;;;;6.20;3.30;;;;;;;;;;5073962;28;20739;-47
2022/10/08 03:11:26;;;;;;;9.30;3.60;;;;;;;;;;5074349;28;20654;-47
2022/10/08 03:13:56;;;;;;;10.13;3.60;;;;;;;;;;5074381;28;20204;-48
2022/10/08 03:16:25;;;;;;;10.37;3.43;;;;;;;;;;5074317;28;20230;-47
2022/10/08 03:18:52;;;;;;;10.93;3.83;;;;;;;;;;5074287;28;20199;-48
2022/10/08 03:21:18;;;;;;;13.60;3.40;;;;;;;;;;5073981;28;20195;-47
2022/10/08 03:23:44;;;;;;;9.77;3.47;;;;;;;;;;5074182;28;20674;-47
2022/10/08 03:26:10;;;;;;;9.27;3.37;;;;;;;;;;5074117;28;20234;-47
2022/10/08 03:28:38;;;;;;;11.93;3.77;;;;;;;;;;5073990;28;20219;-47
2022/10/08 03:31:04;;;;;;;9.80;3.97;;;;;;;;;;5073993;28;20609;-48
2022/10/08 03:33:30;;;;;;;9.30;4.20;;;;;;;;;;5073080;28;20560;-47
2022/10/08 03:35:57;;;;;;;8.37;4.20;;;;;;;;;;5073846;28;20199;-48
2022/10/08 03:38:23;;;;;;;9.67;3.70;;;;;;;;;;5074016;28;20195;-47
2022/10/08 03:40:53;;;;;;;8.20;3.63;;;;;;;;;;5073932;28;20253;-48
2022/10/08 03:43:19;;;;;;;9.80;4.03;;;;;;;;;;5073999;28;20294;-47
2022/10/08 03:45:49;;;;;;;9.87;4.20;;;;;;;;;;5073799;28;20658;-48
2022/10/08 03:48:15;;;;;;;9.77;3.97;;;;;;;;;;5073385;28;20278;-47
2022/10/08 03:50:48;;;;;;;6.93;3.33;;;;;;;;;;5073782;28;20227;-48
2022/10/08 03:53:14;;;;;;;14.67;5.23;;;;;;;;;;5073531;28;20270;-47
2022/10/08 03:55:40;;;;;;;11.37;4.73;;;;;;;;;;5073451;28;20223;-47
2022/10/08 03:58:06;;;;;;;12.07;3.60;;;;;;;;;;5073424;28;20310;-48
2022/10/08 04:00:32;;;;;;;12.57;4.17;;;;;;;;;;5073504;28;20218;-47
2022/10/08 04:03:00;;;;;;;8.87;4.20;;;;;;;;;;5073167;28;20187;-47
2022/10/08 04:05:26;;;;;;;11.10;3.90;;;;;;;;;;5073349;28;20222;-47
2022/10/08 04:07:52;;;;;;;11.03;4.30;;;;;;;;;;5073309;28;20776;-47
2022/10/08 04:10:18;;;;;;;12.37;3.90;;;;;;;;;;5073268;28;20204;-47
2022/10/08 04:12:44;;;;;;;10.03;4.03;;;;;;;;;;5073182;28;20227;-48
2022/10/08 04:15:10;;;;;;;14.93;3.83;;;;;;;;;;5073164;28;20245;-47
2022/10/08 04:17:36;;;;;;;7.53;3.80;;;;;;;;;;5073237;28;20245;-47
2022/10/08 04:20:03;;;;;;;8.80;3.83;;;;;;;;;;5073134;28;20195;-47
2022/10/08 04:22:29;;;;;;;8.10;3.53;;;;;;;;;;5072659;28;20227;-47
2022/10/08 04:24:55;;;;;;;12.40;3.90;;;;;;;;;;5073001;28;20269;-47
2022/10/08 04:27:21;;;;;;;8.93;3.73;;;;;;;;;;5073000;28;20669;-47
2022/10/08 04:29:47;;;;;;;8.03;4.10;;;;;;;;;;5072988;28;20195;-47
2022/10/08 04:32:13;;;;;;;11.27;4.00;;;;;;;;;;5072761;28;20234;-47
2022/10/08 04:34:39;;;;;;;10.30;4.47;;;;;;;;;;5072866;28;20215;-48
2022/10/08 04:37:07;;;;;;;7.93;3.57;;;;;;;;;;5072860;28;20203;-47
2022/10/08 04:39:33;;;;;;;12.07;3.83;;;;;;;;;;5072562;28;20227;-47
2022/10/08 04:41:59;;;;;;;9.87;4.37;;;;;;;;;;5072615;28;20218;-47
2022/10/08 04:44:25;;;;;;;11.60;3.87;;;;;;;;;;5072394;28;20657;-47
2022/10/08 04:46:51;;;;;;;12.87;4.40;;;;;;;;;;5072658;28;20273;-47
2022/10/08 04:49:18;;;;;;;13.10;3.97;;;;;;;;;;5072252;28;20227;-48
2022/10/08 04:51:44;;;;;;;8.37;3.77;;;;;;;;;;5072336;28;20227;-47
2022/10/08 04:54:11;;;;;;;10.10;4.13;;;;;;;;;;5072371;28;20280;-47
2022/10/08 04:56:37;;;;;;;14.83;5.10;;;;;;;;;;5072147;28;20196;-48
2022/10/08 04:59:04;;;;;;;10.73;3.90;;;;;;;;;;5072066;28;20195;-47
2022/10/08 05:01:30;;;;;;;9.67;4.87;;;;;;;;;;5070462;28;20199;-47
2022/10/08 05:03:57;;;;;;;8.03;4.03;;;;;;;;;;5072134;28;20192;-47
2022/10/08 05:06:24;;;;;;;11.67;5.23;;;;;;;;;;5072269;28;20209;-47
2022/10/08 05:08:50;;;;;;;11.27;4.80;;;;;;;;;;5072007;28;20223;-47
2022/10/08 05:11:18;;;;;;;10.00;4.70;;;;;;;;;;5071716;28;20567;-47
2022/10/08 05:13:48;;;;;;;9.70;5.07;;;;;;;;;;5072097;28;20224;-47
2022/10/08 05:16:16;;;;;;;15.70;5.37;;;;;;;;;;5070996;28;20612;-47
2022/10/08 05:18:42;;;;;;;14.73;5.37;;;;;;;;;;5071896;28;20203;-47
2022/10/08 05:21:09;;;;;;;12.70;6.00;;;;;;;;;;5071379;28;20290;-47
2022/10/08 05:23:36;;;;;;;14.83;5.30;;;;;;;;;;5072432;28;20282;-46
2022/10/08 05:26:09;;;;;;;13.33;5.60;;;;;;;;;;5071634;28;20245;-47
2022/10/08 05:28:40;;;;;;;10.13;5.37;;;;;;;;;;5058828;28;20193;-48
2022/10/08 05:31:06;;;;;;;15.33;5.57;;;;;;;;;;5060671;28;20295;-45
2022/10/08 05:33:34;;;;;;;10.70;5.53;;;;;;;;;;5071212;28;20294;-46
2022/10/08 05:36:01;;;;;;;14.83;6.10;;;;;;;;;;5071692;28;20207;-47
2022/10/08 05:38:28;;;;;;;11.30;5.93;;;;;;;;;;5071475;28;20305;-47
2022/10/08 05:40:54;;;;;;;12.43;5.80;;;;;;;;;;5071489;28;20202;-47
2022/10/08 05:43:20;;;;;;;13.50;5.30;;;;;;;;;;5071475;28;20202;-47
2022/10/08 05:45:51;;;;;;;15.63;5.63;;;;;;;;;;5071742;28;20195;-47
2022/10/08 05:48:17;;;;;;;10.00;5.33;;;;;;;;;;5071471;28;20334;-47
2022/10/08 05:50:43;;;;;;;11.60;5.67;;;;;;;;;;5071349;28;20676;-47
2022/10/08 05:53:09;;;;;;;13.97;6.30;;;;;;;;;;5071244;28;20223;-47
2022/10/08 05:55:35;;;;;;;11.73;6.07;;;;;;;;;;5071352;28;20196;-47
2022/10/08 05:58:01;;;;;;;11.50;6.10;;;;;;;;;;5070912;28;20192;-47
2022/10/08 06:00:27;;;;;;;12.10;6.03;;;;;;;;;;5070961;28;20587;-47
2022/10/08 06:02:54;;;;;;;11.13;5.57;;;;;;;;;;5071134;28;20207;-48
2022/10/08 06:05:21;;;;;;;8.27;5.87;;;;;;;;;;5071231;28;20749;-48
2022/10/08 06:07:47;;;;;;;17.13;6.10;;;;;;;;;;5071453;28;20230;-47
2022/10/08 06:10:13;;;;;;;16.83;7.77;;;;;;;;;;5070576;28;20211;-47
2022/10/08 06:12:39;;;;;;;13.70;6.87;;;;;;;;;;5071000;28;20709;-48
2022/10/08 06:15:05;;;;;;;13.30;6.43;;;;;;;;;;5071270;28;20299;-47
2022/10/08 06:17:31;;;;;;;13.23;6.67;;;;;;;;;;5071392;28;20195;-48
2022/10/08 06:19:59;;;;;;;12.90;7.67;;;;;;;;;;5071325;28;20195;-48
2022/10/08 06:22:25;;;;;;;22.27;9.27;;;;;;;;;;5071192;28;20281;-48
2022/10/08 06:24:51;;;;;;;11.90;8.10;;;;;;;;;;5071111;28;20199;-47
2022/10/08 06:27:17;;;;;;;11.27;6.80;;;;;;;;;;5071176;28;20602;-46
2022/10/08 06:29:43;;;;;;;14.17;7.67;;;;;;;;;;5071871;28;20199;-47
2022/10/08 06:32:09;;;;;;;15.03;7.00;;;;;;;;;;5070896;28;20584;-47
2022/10/08 06:34:35;;;;;;;14.33;6.83;;;;;;;;;;5071008;28;20451;-47
2022/10/08 06:37:02;;;;;;;15.53;8.07;;;;;;;;;;5070965;28;20199;-47
2022/10/08 06:39:28;;;;;;;14.67;7.87;;;;;;;;;;5070619;28;20207;-47
2022/10/08 06:41:54;;;;;;;10.70;6.60;;;;;;;;;;5070494;28;20211;-47
2022/10/08 06:44:20;;;;;;;11.43;7.07;;;;;;;;;;5070458;28;20266;-47
2022/10/08 06:46:47;;;;;;;15.00;7.10;;;;;;;;;;5070403;28;20579;-47
2022/10/08 06:49:13;;;;;;;16.93;7.90;;;;;;;;;;5067832;28;20501;-48
2022/10/08 06:51:39;;;;;;;11.00;6.80;;;;;;;;;;5070702;28;20195;-48
2022/10/08 06:54:06;;;;;;;14.30;6.80;;;;;;;;;;5071410;28;20195;-48
2022/10/08 06:56:34;;;;;;;13.23;6.77;;;;;;;;;;5071181;28;20291;-48
2022/10/08 06:59:00;;;;;;;15.10;7.57;;;;;;;;;;5071342;28;20283;-48
2022/10/08 07:01:28;;;;;;;13.87;7.30;;;;;;;;;;5071077;28;20191;-48
2022/10/08 07:03:54;;;;;;;14.43;6.90;;;;;;;;;;5071017;28;20200;-48
2022/10/08 07:06:21;;;;;;;11.00;7.00;;;;;;;;;;5068805;28;20196;-48
2022/10/08 07:08:50;;;;;;;9.27;6.03;;;;;;;;;;5070952;28;20260;-48
2022/10/08 07:11:18;;;;;;;12.90;6.87;;;;;;;;;;5074123;28;20286;-48
2022/10/08 07:13:44;;;;;;;11.20;6.40;;;;;;;;;;5074022;28;20227;-48
2022/10/08 07:16:11;;;;;;;13.07;6.47;;;;;;;;;;5072278;28;20206;-48
2022/10/08 07:18:38;;;;;;;13.50;6.37;;;;;;;;;;5074270;28;20210;-48
2022/10/08 07:21:05;;;;;;;10.23;6.07;;;;;;;;;;5074685;28;20199;-48
2022/10/08 07:23:31;;;;;;;14.30;6.30;;;;;;;;;;5074635;28;20562;-48
2022/10/08 07:25:58;;;;;;;11.27;6.10;;;;;;;;;;5074468;28;20282;-48
2022/10/08 07:28:26;;;;;;;11.07;5.37;;;;;;;;;;5074109;28;20743;-48
2022/10/08 07:30:52;;;;;;;9.00;5.97;;;;;;;;;;5074430;28;20290;-48
2022/10/08 07:33:18;;;;;;;8.07;5.80;;;;;;;;;;5074204;28;20327;-48
2022/10/08 07:35:44;;;;;;;11.20;6.27;;;;;;;;;;5074312;28;20203;-48
2022/10/08 07:38:10;;;;;;;11.53;6.67;;;;;;;;;;5074197;28;20204;-48
2022/10/08 07:40:36;;;;;;;17.63;7.53;;;;;;;;;;5074247;28;20274;-48
2022/10/08 07:43:03;;;;;;;11.50;8.37;;;;;;;;;;5074088;28;20291;-48
2022/10/08 07:45:31;;;;;;;13.87;7.87;;;;;;;;;;5074187;28;20199;-48
2022/10/08 07:47:57;;;;;;;14.80;7.63;;;;;;;;;;5074091;28;20572;-48
2022/10/08 07:50:23;;;;;;;11.87;6.90;;;;;;;;;;5073759;28;20741;-48
2022/10/08 07:52:49;;;;;;;8.93;6.83;;;;;;;;;;5074064;28;20234;-48
2022/10/08 07:55:15;;;;;;;16.60;7.27;;;;;;;;;;5073895;28;20286;-48
2022/10/08 07:57:41;;;;;;;9.87;6.47;;;;;;;;;;5073896;28;20250;-48
2022/10/08 08:00:08;;;;;;;9.83;6.77;;;;;;;;;;5073767;28;20203;-48
2022/10/08 08:02:35;;;;;;;10.37;6.40;;;;;;;;;;5073892;28;20279;-48
2022/10/08 08:05:01;;;;;;;9.80;6.47;;;;;;;;;;5073669;28;20226;-48
2022/10/08 08:07:28;;;;;;;10.93;6.77;;;;;;;;;;5073728;28;20753;-48
2022/10/08 08:09:54;;;;;;;11.93;7.07;;;;;;;;;;5073742;28;20199;-48
2022/10/08 08:12:20;;;;;;;11.10;6.53;;;;;;;;;;5073475;28;20591;-48
2022/10/08 08:14:46;;;;;;;10.73;6.03;;;;;;;;;;5073747;28;20199;-48
2022/10/08 08:17:12;;;;;;;11.27;6.37;;;;;;;;;;5073353;28;20199;-48
2022/10/08 08:19:39;;;;;;;10.87;6.90;;;;;;;;;;5073171;28;20606;-48
2022/10/08 08:22:06;;;;;;;11.57;7.00;;;;;;;;;;5073621;28;20204;-48
2022/10/08 08:24:32;;;;;;;9.23;5.80;;;;;;;;;;5073312;28;20274;-48
2022/10/08 08:26:58;;;;;;;11.60;6.13;;;;;;;;;;5073270;28;20196;-48
2022/10/08 08:29:24;;;;;;;10.50;6.00;;;;;;;;;;5073644;28;20245;-48
2022/10/08 08:31:50;;;;;;;12.27;5.33;;;;;;;;;;5073127;28;20208;-47
2022/10/08 08:34:17;;;;;;;10.40;5.00;;;;;;;;;;5073101;28;20987;-47
2022/10/08 08:36:45;;;;;;;8.97;4.97;;;;;;;;;;5073160;28;20191;-48
2022/10/08 08:39:13;;;;;;;10.10;5.10;;;;;;;;;;5072951;28;20204;-48
2022/10/08 08:41:48;;;;;;;9.70;5.33;;;;;;;;;;5073134;28;20208;-48
2022/10/08 08:44:18;;;;;;;10.83;5.10;;;;;;;;;;5072848;28;20198;-47
2022/10/08 08:46:46;;;;;;;9.03;5.03;;;;;;;;;;5072796;28;20199;-48
2022/10/08 08:49:17;;;;;;;12.40;5.03;;;;;;;;;;5072541;28;20325;-48
2022/10/08 08:51:44;;;;;;;10.67;4.67;;;;;;;;;;5072796;28;20221;-48
2022/10/08 08:54:10;;;;;;;6.70;4.20;;;;;;;;;;5072659;28;20295;-48
2022/10/08 08:56:36;;;;;;;7.77;4.30;;;;;;;;;;5072671;28;20223;-48
2022/10/08 08:59:05;;;;;;;6.00;3.57;;;;;;;;;;5072378;28;20199;-48
2022/10/08 09:01:33;;;;;;;8.00;4.20;;;;;;;;;;5072718;28;20199;-48
2022/10/08 09:04:03;;;;;;;7.93;4.50;;;;;;;;;;5072409;28;20196;-48
2022/10/08 09:06:29;;;;;;;11.73;4.70;;;;;;;;;;5072455;28;20576;-49
2022/10/08 09:08:58;;;;;;;5.40;3.83;;;;;;;;;;5072338;28;20211;-48
2022/10/08 09:11:25;;;;;;;9.27;4.40;;;;;;;;;;5072349;28;20253;-48
2022/10/08 09:13:57;;;;;;;6.63;3.83;;;;;;;;;;5072214;28;20249;-49
2022/10/08 09:16:23;;;;;;;10.47;4.50;;;;;;;;;;5072287;28;20196;-48
2022/10/08 09:18:50;;;;;;;8.20;3.83;;;;;;;;;;5072287;28;20195;-47
2022/10/08 09:21:16;;;;;;;9.03;3.73;;;;;;;;;;5072200;28;20196;-48
2022/10/08 09:23:42;;;;;;;6.00;3.50;;;;;;;;;;5072208;28;20241;-48
2022/10/08 09:26:15;;;;;;;9.47;3.90;;;;;;;;;;5072112;28;20574;-48
2022/10/08 09:28:43;;;;;;;10.47;3.83;;;;;;;;;;5072302;28;20199;-47
2022/10/08 09:31:24;;;;;;;9.13;3.40;;;;;;;;;;5071749;28;20199;-47
2022/10/08 09:33:58;;;;;;;7.43;3.20;;;;;;;;;;5069551;28;20693;-47
2022/10/08 09:36:32;;;;;;;5.13;3.07;;;;;;;;;;5072050;28;20630;-48
2022/10/08 09:38:59;;;;;;;7.07;2.97;;;;;;;;;;5072048;28;20282;-48
2022/10/08 09:41:27;;;;;;;9.63;3.00;;;;;;;;;;5071826;28;20738;-49
2022/10/08 09:44:05;;;;;;;4.90;2.53;;;;;;;;;;5071792;28;20211;-48
2022/10/08 09:46:31;;;;;;;8.53;2.63;;;;;;;;;;5071939;28;20223;-48
2022/10/08 09:49:18;;;;;;;9.50;2.37;;;;;;;;;;5071644;28;20261;-47
2022/10/08 09:51:44;;;;;;;5.80;2.50;;;;;;;;;;5071950;28;20196;-48
2022/10/08 09:54:12;;;;;;;7.17;2.10;;;;;;;;;;5071674;28;20238;-47
2022/10/08 09:56:40;;;;;;;6.17;2.53;;;;;;;;;;5071864;28;20199;-47
2022/10/08 09:59:06;;;;;;;8.33;2.80;;;;;;;;;;5071658;28;20212;-47
2022/10/08 10:01:32;;;;;;;6.20;2.23;;;;;;;;;;5071751;28;20282;-48
2022/10/08 10:03:59;;;;;;;6.53;2.10;;;;;;;;;;5071729;28;20257;-48
2022/10/08 10:06:26;;;;;;;10.20;2.40;;;;;;;;;;5072042;28;20199;-49
2022/10/08 10:08:59;;;;;;;8.70;2.70;;;;;;;;;;5071661;28;20223;-48
2022/10/08 10:11:27;;;;;;;6.10;2.13;;;;;;;;;;5071657;28;20294;-48
2022/10/08 10:13:55;;;;;;;10.03;2.57;;;;;;;;;;5071460;28;20776;-47
2022/10/08 10:16:23;;;;;;;5.73;2.10;;;;;;;;;;5071388;28;20203;-48
2022/10/08 10:18:55;;;;;;;8.20;2.07;;;;;;;;;;5071651;28;20265;-47
2022/10/08 10:21:24;;;;;;;4.37;2.30;;;;;;;;;;5071477;28;20719;-47
2022/10/08 10:23:54;;;;;;;11.17;2.53;;;;;;;;;;5071489;28;20203;-48
2022/10/08 10:26:22;;;;;;;5.87;1.80;;;;;;;;;;5071457;28;20673;-48
2022/10/08 10:28:51;;;;;;;8.73;2.83;;;;;;;;;;5071540;28;20273;-48
2022/10/08 10:31:19;;;;;;;8.67;2.20;;;;;;;;;;5071435;28;20291;-48
2022/10/08 10:33:49;;;;;;;5.17;2.27;;;;;;;;;;5071599;28;20225;-48
2022/10/08 10:36:16;;;;;;;7.33;2.53;;;;;;;;;;5071361;28;20195;-48
2022/10/08 10:38:49;;;;;;;7.70;2.40;;;;;;;;;;5071585;28;20203;-48
2022/10/08 10:41:17;;;;;;;6.93;2.17;;;;;;;;;;5071488;28;20206;-49
2022/10/08 10:43:45;;;;;;;6.07;1.97;;;;;;;;;;5073200;28;20593;-48
2022/10/08 10:46:18;;;;;;;3.87;1.60;;;;;;;;;;5074996;28;20208;-48
2022/10/08 10:48:45;;;;;;;4.57;1.70;;;;;;;;;;5075058;28;20227;-48
2022/10/08 10:51:34;;;;;;;4.70;1.60;;;;;;;;;;5075057;28;20230;-48
2022/10/08 10:54:06;;;;;;;2.43;1.53;;;;;;;;;;5075320;28;20215;-48
2022/10/08 10:56:36;;;;;;;2.97;1.50;;;;;;;;;;5075215;28;20279;-48
2022/10/08 10:59:08;;;;;;;3.43;1.40;;;;;;;;;;5074823;28;20196;-48
2022/10/08 11:01:38;;;;;;;4.40;1.67;;;;;;;;;;5074824;28;20204;-48
2022/10/08 11:04:08;;;;;;;2.43;1.17;;;;;;;;;;5074784;28;20579;-48
2022/10/08 11:06:52;;;;;;;3.63;1.43;;;;;;;;;;5074874;28;20229;-49
2022/10/08 11:09:23;;;;;;;5.33;1.80;;;;;;;;;;5074452;28;20223;-48
2022/10/08 11:11:52;;;;;;;5.87;1.60;;;;;;;;;;5074771;28;20218;-48
2022/10/08 11:14:35;;;;;;;2.97;1.30;;;;;;;;;;5074439;28;20227;-49
2022/10/08 11:20:03;;;;;;;4.43;1.40;;;;;;;;;;5073379;28;20203;-49
2022/10/08 11:22:34;;;;;;;5.00;1.50;;;;;;;;;;5074359;28;20250;-49
2022/10/08 11:25:16;;;;;;;3.20;1.70;;;;;;;;;;5074425;28;20207;-48
2022/10/08 11:27:46;;;;;;;3.80;1.30;;;;;;;;;;5074466;28;20205;-49
2022/10/08 11:30:13;;;;;;;4.20;1.50;;;;;;;;;;5074321;28;20204;-49
2022/10/08 11:32:40;;;;;;;4.37;1.47;;;;;;;;;;5074227;28;20223;-48
2022/10/08 11:35:17;;;;;;;2.67;1.43;;;;;;;;;;5074259;28;20203;-48
2022/10/08 11:37:46;;;;;;;6.37;1.83;;;;;;;;;;5074400;28;20211;-49
2022/10/08 11:40:19;;;;;;;2.23;1.20;;;;;;;;;;5074126;28;20196;-49
2022/10/08 11:42:48;;;;;;;3.67;1.53;;;;;;;;;;5074202;28;20203;-49
2022/10/08 11:45:28;;;;;;;2.10;1.40;;;;;;;;;;5073969;28;20204;-48
2022/10/08 11:47:54;;;;;;;3.43;1.80;;;;;;;;;;5073894;28;20875;-49
2022/10/08 11:50:24;;;;;;;4.17;1.60;;;;;;;;;;5073850;28;20231;-49
2022/10/08 11:52:50;;;;;;;4.73;1.80;;;;;;;;;;5073986;28;20231;-49
2022/10/08 11:55:19;;;;;;;4.27;1.83;;;;;;;;;;5073097;28;20711;-49
2022/10/08 11:57:53;;;;;;;3.43;1.70;;;;;;;;;;5073881;28;20200;-49
2022/10/08 12:00:32;;;;;;;4.33;1.93;;;;;;;;;;5073775;28;20647;-49
2022/10/08 12:02:58;;;;;;;4.80;1.40;;;;;;;;;;5073879;28;20188;-49
2022/10/08 12:05:42;;;;;;;6.53;2.10;;;;;;;;;;5073666;28;20205;-49
2022/10/08 12:08:10;;;;;;;7.03;1.90;;;;;;;;;;5073707;28;20221;-49
2022/10/08 12:10:37;;;;;;;8.00;2.00;;;;;;;;;;5073749;28;20206;-48
2022/10/08 12:13:24;;;;;;;5.90;2.03;;;;;;;;;;5073746;28;20269;-49
2022/10/08 12:15:51;;;;;;;4.87;1.70;;;;;;;;;;5073515;28;20206;-48
2022/10/08 12:18:28;;;;;;;9.17;2.43;;;;;;;;;;5073451;28;20647;-48
2022/10/08 12:21:09;;;;;;;6.33;2.30;;;;;;;;;;5073410;28;20208;-49
2022/10/08 12:23:40;;;;;;;5.87;1.83;;;;;;;;;;5073165;28;20198;-49
2022/10/08 12:26:09;;;;;;;3.33;1.50;;;;;;;;;;5073562;28;20210;-48
2022/10/08 12:28:45;;;;;;;3.43;1.63;;;;;;;;;;5073380;28;20293;-48
2022/10/08 12:31:26;;;;;;;4.70;1.50;;;;;;;;;;5073399;28;20203;-48
2022/10/08 12:34:00;;;;;;;4.40;1.60;;;;;;;;;;5073278;28;20241;-48
2022/10/08 12:36:30;;;;;;;4.23;1.17;;;;;;;;;;5073103;28;20669;-48
2022/10/08 12:39:02;;;;;;;2.17;1.50;;;;;;;;;;5073245;28;20249;-48
2022/10/08 12:41:30;;;;;;;3.80;1.30;;;;;;;;;;5072996;28;20294;-48
2022/10/08 12:43:58;;;;;;;3.00;1.17;;;;;;;;;;5072979;28;20202;-48
2022/10/08 12:46:29;;;;;;;3.13;1.07;;;;;;;;;;5072956;28;20281;-49
2022/10/08 12:48:58;;;;;;;2.40;1.20;;;;;;;;;;5072914;28;20247;-49
2022/10/08 12:51:28;;;;;;;2.70;1.37;;;;;;;;;;5072749;28;20203;-47
2022/10/08 12:53:54;;;;;;;4.17;1.30;;;;;;;;;;5072694;28;20645;-49
2022/10/08 12:56:24;;;;;;;5.00;1.37;;;;;;;;;;5072712;28;20214;-48
2022/10/08 12:58:51;;;;;;;3.37;0.80;;;;;;;;;;5072693;28;20196;-48
2022/10/08 13:01:18;;;;;;;1.93;1.20;;;;;;;;;;5072552;28;20273;-48
2022/10/08 13:03:45;;;;;;;1.33;0.83;;;;;;;;;;5072668;28;20184;-47
2022/10/08 13:06:15;;;;;;;1.47;0.90;;;;;;;;;;5071872;28;20201;-48
2022/10/08 13:08:41;;;;;;;1.40;0.70;;;;;;;;;;5072209;28;20728;-48
2022/10/08 13:11:08;;;;;;;1.10;0.70;;;;;;;;;;5072387;28;20222;-48
2022/10/08 13:13:48;;;;;;;1.70;1.03;;;;;;;;;;5072355;28;20280;-48
2022/10/08 13:16:15;;;;;;;2.30;0.80;;;;;;;;;;5072251;28;20241;-49
2022/10/08 13:18:42;;;;;;;1.47;0.80;;;;;;;;;;5072255;28;20286;-48
2022/10/08 13:21:23;;;;;;;3.40;1.20;;;;;;;;;;5072171;28;20203;-47
2022/10/08 13:23:49;;;;;;;1.87;1.10;;;;;;;;;;5072320;28;20649;-50
2022/10/08 13:26:33;;;;;;;2.80;0.80;;;;;;;;;;5072143;28;20238;-48
2022/10/08 13:29:14;;;;;;;3.77;1.00;;;;;;;;;;5072167;28;20187;-48
2022/10/08 13:31:41;;;;;;;1.70;1.07;;;;;;;;;;5071996;28;20289;-47
2022/10/08 13:34:12;;;;;;;1.33;1.10;;;;;;;;;;5072251;28;20259;-48
2022/10/08 13:36:38;;;;;;;3.30;1.10;;;;;;;;;;5071999;28;20637;-48
2022/10/08 13:39:04;;;;;;;2.70;1.20;;;;;;;;;;5072089;28;20203;-47
2022/10/08 13:41:30;;;;;;;4.43;1.27;;;;;;;;;;5071993;28;20235;-48
2022/10/08 13:43:56;;;;;;;4.17;1.30;;;;;;;;;;5072113;28;20253;-48
2022/10/08 13:46:22;;;;;;;2.63;1.20;;;;;;;;;;5071869;28;20195;-48
2022/10/08 13:48:50;;;;;;;2.27;1.30;;;;;;;;;;5071835;28;20239;-47
2022/10/08 13:51:16;;;;;;;4.87;1.50;;;;;;;;;;5071846;28;20204;-47
2022/10/08 13:53:44;;;;;;;5.17;1.27;;;;;;;;;;5063658;28;20226;-48
2022/10/08 13:56:10;;;;;;;3.93;1.30;;;;;;;;;;5071835;28;20723;-48
2022/10/08 13:58:36;;;;;;;2.33;1.20;;;;;;;;;;5071899;28;20287;-48
2022/10/08 14:01:02;;;;;;;3.60;1.17;;;;;;;;;;5071857;28;20210;-47
2022/10/08 14:03:28;;;;;;;4.93;1.30;;;;;;;;;;5071970;28;20229;-47
2022/10/08 14:05:55;;;;;;;2.53;1.10;;;;;;;;;;5069345;28;20195;-47
2022/10/08 14:08:23;;;;;;;2.43;1.20;;;;;;;;;;5071323;28;20227;-47
2022/10/08 14:10:56;;;;;;;3.00;1.10;;;;;;;;;;5069692;28;20235;-47
2022/10/08 14:13:22;;;;;;;1.73;1.00;;;;;;;;;;5071531;28;20235;-47
2022/10/08 14:15:48;;;;;;;3.23;1.40;;;;;;;;;;5071880;28;20199;-48
2022/10/08 14:18:14;;;;;;;2.40;1.17;;;;;;;;;;5073048;28;20287;-48
2022/10/08 14:20:40;;;;;;;3.03;1.30;;;;;;;;;;5075798;28;20307;-48
2022/10/08 14:23:09;;;;;;;3.43;1.43;;;;;;;;;;5075984;28;20269;-49
2022/10/08 14:25:35;;;;;;;4.43;1.53;;;;;;;;;;5074849;28;20191;-48
2022/10/08 14:28:01;;;;;;;4.30;1.70;;;;;;;;;;5075418;28;20253;-48
2022/10/08 14:30:27;;;;;;;2.63;1.17;;;;;;;;;;5074741;28;20229;-48
2022/10/08 14:32:54;;;;;;;4.20;1.57;;;;;;;;;;5075575;28;20229;-48
2022/10/08 14:35:21;;;;;;;3.80;1.33;;;;;;;;;;5075605;28;20616;-48
2022/10/08 14:37:47;;;;;;;2.63;1.40;;;;;;;;;;5075648;28;20192;-48
2022/10/08 14:40:16;;;;;;;4.70;1.37;;;;;;;;;;5075508;28;20557;-48
2022/10/08 14:42:42;;;;;;;4.17;1.17;;;;;;;;;;5074635;28;20192;-48
2022/10/08 14:45:09;;;;;;;2.70;1.33;;;;;;;;;;5075390;28;20279;-48
2022/10/08 14:47:35;;;;;;;2.00;1.03;;;;;;;;;;5075326;28;20732;-48
2022/10/08 14:50:01;;;;;;;3.20;1.50;;;;;;;;;;5075073;28;20290;-48